Lauderdale Lakes, Florida
Current Conditions -  °F | °C
As of 4:53 PM on Monday 20 Oct 2014 (Local Time) from KFXE Reporting Station
Broken Clouds Broken Clouds  
Wind Chill: 81°   Ceiling: 7500
Heat Index: 83°   Visibility: 10mi
Dew Point: 67°   Wind: 12mph
Humidity: 62%   Direction: 110°ESE
Pressure: 29.94"   Gusts: NA
Location:  26.144°N, 80.1736°W
Report Text: KFXE 202053Z 11010KT 10SM SCT034 SCT045 BKN075 27/19 A2994 RMK AO2 RAB01E21 SLP142 P0000 60000 T02720194 56008
Loading
Personal Weather Stations






























Interactive Weather Map
Tropical Storm Tracking
New forecast layout! Learn more

10-Day Weather Forecast

Advertisements
Track Severe Weather on mobile